Time;durP1;ratioP1;P1;durP2;ratioP2;P2;SDS_P1;SDS_P2;PMS_P1;PMS_P2;Temp;Humidity;BMP_temperature;BMP_pressure;BME280_temperature;BME280_humidity;BME280_pressure;Samples;Min_cycle;Max_cycle;Signal;HPM_P1;HPM_P2
2021/12/29 00:02:04;;;;;;;;;;;;;;;19.03;46.96;100213.47;7281776;19;152766;-49
2021/12/29 00:04:31;;;;;;;;;;;;;;;19.08;46.61;100220.91;7278108;19;154127;-49
2021/12/29 00:06:59;;;;;;;;;;;;;;;19.07;46.65;100231.31;7279123;19;152040;-50
2021/12/29 00:09:26;;;;;;;;;;;;;;;19.09;46.83;100231.81;7279216;19;153915;-49
2021/12/29 00:11:53;;;;;;;;;;;;;;;19.10;46.54;100216.66;7287932;19;153765;-49
2021/12/29 00:14:20;;;;;;;;;;;;;;;19.14;46.98;100221.63;7281095;19;153342;-49
2021/12/29 00:16:48;;;;;;;;;;;;;;;19.15;46.49;100214.88;7279707;19;154615;-49
2021/12/29 00:19:26;;;;;;;;;;;;;;;19.15;46.74;100224.13;7276370;19;152568;-49
2021/12/29 00:21:53;;;;;;;;;;;;;;;19.16;46.73;100220.19;7281141;19;153503;-49
2021/12/29 00:24:20;;;;;;;;;;;;;;;19.18;46.85;100222.63;7279893;19;153356;-49
2021/12/29 00:26:48;;;;;;;;;;;;;;;19.19;46.55;100229.91;7280642;19;151922;-49
2021/12/29 00:29:15;;;;;;;;;;;;;;;19.20;46.47;100237.16;7280876;19;153629;-49
2021/12/29 00:31:42;;;;;;;;;;;;;;;19.21;46.54;100241.63;7279138;19;152425;-49
2021/12/29 00:34:10;;;;;;;;;;;;;;;19.21;46.90;100253.66;7287966;19;151888;-50
2021/12/29 00:36:37;;;;;;;;;;;;;;;19.21;46.74;100256.47;7278182;19;154030;-50
2021/12/29 00:39:04;;;;;;;;;;;;;;;19.22;46.48;100246.06;7280774;19;151973;-49
2021/12/29 00:41:31;;;;;;;;;;;;;;;19.23;46.89;100244.94;7280424;19;153979;-50
2021/12/29 00:43:58;;;;;;;;;;;;;;;19.23;46.96;100250.53;7276665;19;154093;-49
2021/12/29 00:46:31;;;;;;;;;;;;;;;19.22;46.96;100257.25;7277804;19;151866;-49
2021/12/29 00:48:58;;;;;;;;;;;;;;;19.23;46.89;100264.53;7279964;19;153542;-49
2021/12/29 00:51:26;;;;;;;;;;;;;;;19.24;46.91;100261.44;7278659;19;153814;-49
2021/12/29 00:53:53;;;;;;;;;;;;;;;19.24;46.77;100257.78;7279687;19;151839;-50
2021/12/29 00:56:20;;;;;;;;;;;;;;;19.22;46.93;100257.25;7285981;19;152500;-49
2021/12/29 00:58:47;;;;;;;;;;;;;;;19.22;46.75;100260.91;7286205;19;152128;-49
2021/12/29 01:01:14;;;;;;;;;;;;;;;19.23;46.58;100268.16;7282161;19;154219;-49
2021/12/29 01:03:43;;;;;;;;;;;;;;;19.23;46.84;100256.97;7283725;19;153588;-49
2021/12/29 01:06:10;;;;;;;;;;;;;;;19.22;46.62;100255.28;7286194;19;152016;-49
2021/12/29 01:08:38;;;;;;;;;;;;;;;19.22;46.75;100249.69;7285969;19;152347;-50
2021/12/29 01:11:05;;;;;;;;;;;;;;;19.22;46.81;100243.25;7284849;19;152660;-49
2021/12/29 01:13:34;;;;;;;;;;;;;;;19.21;46.61;100250.88;7286281;19;152420;-49
2021/12/29 01:18:34;;;;;;;;;;;;;;;19.20;46.58;100240.81;7291624;19;154555;-49
2021/12/29 01:21:01;;;;;;;;;;;;;;;19.20;46.93;100252.00;7284594;19;153999;-49
2021/12/29 01:23:28;;;;;;;;;;;;;;;19.17;46.59;100254.63;7282578;19;154116;-49
2021/12/29 01:25:55;;;;;;;;;;;;;;;19.17;46.57;100261.00;7285455;19;152206;-50
2021/12/29 01:28:22;;;;;;;;;;;;;;;19.18;46.61;100253.44;7285310;19;153764;-49
2021/12/29 01:30:50;;;;;;;;;;;;;;;19.19;46.59;100255.09;7284743;19;153804;-50
2021/12/29 01:33:17;;;;;;;;;;;;;;;19.16;46.86;100253.78;7284195;19;151841;-49
2021/12/29 01:35:44;;;;;;;;;;;;;;;19.16;46.96;100245.38;7285655;19;152664;-49
2021/12/29 01:38:11;;;;;;;;;;;;;;;19.14;46.96;100239.25;7283919;19;153203;-50
2021/12/29 01:40:39;;;;;;;;;;;;;;;19.15;46.78;100246.53;7290749;19;152375;-50
2021/12/29 01:43:08;;;;;;;;;;;;;;;19.14;47.10;100244.03;7282408;19;154100;-49
2021/12/29 01:45:36;;;;;;;;;;;;;;;19.13;47.05;100248.78;7286464;19;152249;-49
2021/12/29 01:48:04;;;;;;;;;;;;;;;19.12;46.93;100255.56;7283168;19;153308;-49
2021/12/29 01:50:31;;;;;;;;;;;;;;;19.10;46.92;100246.63;7280124;19;153958;-50
2021/12/29 01:53:03;;;;;;;;;;;;;;;19.08;47.22;100244.13;7283403;19;152433;-50
2021/12/29 01:55:31;;;;;;;;;;;;;;;19.08;47.00;100249.75;7284885;19;153440;-49
2021/12/29 01:57:58;;;;;;;;;;;;;;;19.08;47.22;100263.75;7284870;19;153878;-49
2021/12/29 02:00:27;;;;;;;;;;;;;;;19.06;47.09;100259.63;7291333;19;152233;-49
2021/12/29 02:02:54;;;;;;;;;;;;;;;19.01;47.02;100257.75;7282167;19;153948;-49
2021/12/29 02:05:22;;;;;;;;;;;;;;;19.03;47.25;100244.25;7284868;19;152247;-49
2021/12/29 02:07:49;;;;;;;;;;;;;;;18.96;47.08;100234.66;7279620;19;153830;-49
2021/12/29 02:10:17;;;;;;;;;;;;;;;18.97;47.08;100244.72;7282522;19;154159;-50
2021/12/29 02:12:44;;;;;;;;;;;;;;;18.95;47.09;100242.22;7285042;19;152120;-49
2021/12/29 02:15:12;;;;;;;;;;;;;;;18.90;47.51;100245.13;7282117;19;153439;-49
2021/12/29 02:17:39;;;;;;;;;;;;;;;18.87;47.43;100256.97;7282188;19;153433;-49
2021/12/29 02:20:07;;;;;;;;;;;;;;;18.84;47.71;100256.75;7284174;19;152311;-49
2021/12/29 02:27:35;;;;;;;;;;;;;;;18.81;47.47;100263.81;7283909;19;152118;-49
2021/12/29 02:30:02;;;;;;;;;;;;;;;18.80;47.86;100262.16;7283250;19;154516;-49
2021/12/29 02:32:29;;;;;;;;;;;;;;;18.81;47.92;100269.41;7282391;19;152230;-49
2021/12/29 02:34:57;;;;;;;;;;;;;;;18.77;47.76;100268.38;7283417;19;152146;-50
2021/12/29 02:37:26;;;;;;;;;;;;;;;18.74;48.05;100265.38;7283110;19;154266;-50
2021/12/29 02:39:54;;;;;;;;;;;;;;;18.73;48.10;100267.34;7283380;19;152050;-49
2021/12/29 02:42:25;;;;;;;;;;;;;;;18.72;47.97;100267.66;7286096;19;152804;-50
2021/12/29 02:44:53;;;;;;;;;;;;;;;18.72;47.69;100271.28;7290456;19;154015;-49
2021/12/29 02:47:20;;;;;;;;;;;;;;;18.68;47.86;100264.66;7281756;19;152881;-49
2021/12/29 02:49:52;;;;;;;;;;;;;;;18.67;47.85;100254.59;7283023;19;153179;-48
2021/12/29 02:52:19;;;;;;;;;;;;;;;18.67;48.27;100241.44;7283657;19;151809;-49
2021/12/29 02:54:46;;;;;;;;;;;;;;;18.67;47.95;100237.81;7283804;19;153109;-49
2021/12/29 02:57:12;;;;;;;;;;;;;;;18.65;47.91;100232.53;7280794;19;152650;-49
2021/12/29 02:59:39;;;;;;;;;;;;;;;18.64;47.96;100221.66;7282635;19;152268;-49
2021/12/29 03:02:06;;;;;;;;;;;;;;;18.64;47.83;100221.66;7279467;19;152724;-48
2021/12/29 03:04:34;;;;;;;;;;;;;;;18.64;48.32;100221.66;7281902;19;154707;-48
2021/12/29 03:07:01;;;;;;;;;;;;;;;18.63;48.24;100225.59;7287088;19;151786;-48
2021/12/29 03:09:31;;;;;;;;;;;;;;;18.62;48.18;100230.34;7279719;19;154233;-49
2021/12/29 03:11:58;;;;;;;;;;;;;;;18.63;48.34;100226.41;7282931;19;152057;-49
2021/12/29 03:14:25;;;;;;;;;;;;;;;18.62;47.99;100223.97;7280423;19;152556;-49
2021/12/29 03:16:52;;;;;;;;;;;;;;;18.63;48.06;100211.59;7279300;19;152329;-49
2021/12/29 03:19:19;;;;;;;;;;;;;;;18.61;48.03;100213.91;7282551;19;152426;-49
2021/12/29 03:21:47;;;;;;;;;;;;;;;18.60;48.32;100207.47;7280708;19;153599;-49
2021/12/29 03:24:15;;;;;;;;;;;;;;;18.60;48.11;100198.25;7282071;19;153540;-49
2021/12/29 03:26:42;;;;;;;;;;;;;;;18.59;48.05;100188.19;7283062;19;152176;-49
2021/12/29 03:29:09;;;;;;;;;;;;;;;18.58;48.34;100192.13;7289735;19;153036;-49
2021/12/29 03:31:39;;;;;;;;;;;;;;;18.57;48.46;100187.69;7282667;19;152455;-49
2021/12/29 03:34:06;;;;;;;;;;;;;;;18.58;48.39;100183.72;7282131;19;152428;-49
2021/12/29 03:36:32;;;;;;;;;;;;;;;18.57;48.26;100170.91;7279035;19;154262;-49
2021/12/29 03:38:59;;;;;;;;;;;;;;;18.59;48.46;100182.59;7282803;19;151838;-49
2021/12/29 03:41:26;;;;;;;;;;;;;;;18.56;48.11;100194.44;7280438;19;152694;-50
2021/12/29 03:43:53;;;;;;;;;;;;;;;18.55;48.23;100188.00;7281594;19;154187;-49
2021/12/29 03:46:20;;;;;;;;;;;;;;;18.57;48.18;100198.88;7280943;19;152225;-50
2021/12/29 03:48:48;;;;;;;;;;;;;;;18.56;48.23;100194.44;7282803;19;153304;-49
2021/12/29 03:51:15;;;;;;;;;;;;;;;18.55;48.11;100184.38;7289470;19;153053;-50
2021/12/29 03:53:42;;;;;;;;;;;;;;;18.55;48.26;100193.59;7283199;19;153346;-49
2021/12/29 03:56:10;;;;;;;;;;;;;;;18.52;48.38;100191.41;7276089;19;154436;-49
2021/12/29 03:58:37;;;;;;;;;;;;;;;18.53;48.59;100193.06;7280515;19;152334;-48
2021/12/29 04:01:07;;;;;;;;;;;;;;;18.56;48.02;100189.66;7281465;19;152910;-49
2021/12/29 04:03:34;;;;;;;;;;;;;;;18.56;48.18;100186.03;7277337;19;154582;-50
2021/12/29 04:06:01;;;;;;;;;;;;;;;18.54;48.30;100185.50;7280558;19;152227;-49
2021/12/29 04:08:28;;;;;;;;;;;;;;;18.51;48.45;100189.75;7281094;19;152594;-49
2021/12/29 04:10:55;;;;;;;;;;;;;;;18.51;48.46;100191.69;7286374;19;153457;-50
2021/12/29 04:13:22;;;;;;;;;;;;;;;18.51;48.44;100180.50;7278958;19;153286;-49
2021/12/29 04:15:49;;;;;;;;;;;;;;;18.52;48.25;100188.59;7279315;19;152666;-50
2021/12/29 04:18:26;;;;;;;;;;;;;;;18.53;48.03;100186.66;7281739;19;152966;-49
2021/12/29 04:20:55;;;;;;;;;;;;;;;18.52;48.42;100184.97;7279283;19;153416;-50
2021/12/29 04:23:23;;;;;;;;;;;;;;;18.51;48.37;100178.53;7277840;19;153840;-49
2021/12/29 04:25:53;;;;;;;;;;;;;;;18.50;48.36;100179.69;7281522;19;152159;-50
2021/12/29 04:28:22;;;;;;;;;;;;;;;18.50;48.29;100176.06;7280684;19;152130;-49
2021/12/29 04:30:51;;;;;;;;;;;;;;;18.50;48.27;100173.25;7281311;19;152314;-50
2021/12/29 04:33:18;;;;;;;;;;;;;;;18.51;48.46;100172.13;7291452;19;152187;-50
2021/12/29 04:35:46;;;;;;;;;;;;;;;18.50;48.29;100176.88;7284568;19;154962;-49
2021/12/29 04:38:13;;;;;;;;;;;;;;;18.48;48.09;100176.38;7286873;19;152045;-49
2021/12/29 04:40:40;;;;;;;;;;;;;;;18.47;48.60;100182.28;7285219;19;152763;-49
2021/12/29 04:43:07;;;;;;;;;;;;;;;18.46;48.51;100175.88;7287116;19;153337;-49
2021/12/29 04:45:34;;;;;;;;;;;;;;;18.45;48.25;100164.97;7284862;19;152659;-50
2021/12/29 04:48:02;;;;;;;;;;;;;;;18.45;48.63;100151.00;7285294;19;153685;-49
2021/12/29 04:50:36;;;;;;;;;;;;;;;18.45;48.71;100137.84;7284017;19;153407;-49
2021/12/29 04:53:04;;;;;;;;;;;;;;;18.46;48.72;100135.88;7287159;19;151859;-49
2021/12/29 04:55:32;;;;;;;;;;;;;;;18.44;48.53;100138.16;7291987;19;152992;-49
2021/12/29 04:57:59;;;;;;;;;;;;;;;18.44;48.43;100135.38;7288832;19;151512;-51
2021/12/29 05:00:28;;;;;;;;;;;;;;;18.43;48.41;100142.09;7287111;19;152381;-49
2021/12/29 05:02:56;;;;;;;;;;;;;;;18.42;48.75;100146.03;7282831;19;153300;-50
2021/12/29 05:05:40;;;;;;;;;;;;;;;18.43;48.45;100150.50;7287233;19;152402;-49
2021/12/29 05:10:46;;;;;;;;;;;;;;;18.42;48.43;100168.41;7284520;19;153405;-50
2021/12/29 05:13:15;;;;;;;;;;;;;;;18.41;48.54;100175.13;7286154;19;152850;-49
2021/12/29 05:15:41;;;;;;;;;;;;;;;18.39;48.75;100171.84;7284394;19;152628;-49
2021/12/29 05:18:09;;;;;;;;;;;;;;;18.40;48.55;100177.09;7292436;19;153225;-50
2021/12/29 05:20:36;;;;;;;;;;;;;;;18.40;48.81;100176.28;7283704;19;152812;-49
2021/12/29 05:23:03;;;;;;;;;;;;;;;18.41;48.79;100161.16;7278474;19;153343;-49
2021/12/29 05:25:30;;;;;;;;;;;;;;;18.38;48.38;100157.03;7285553;19;151994;-49
2021/12/29 05:27:57;;;;;;;;;;;;;;;18.40;48.61;100159.50;7284411;19;153329;-49
2021/12/29 05:30:26;;;;;;;;;;;;;;;18.38;48.53;100157.03;7280363;19;154004;-49
2021/12/29 05:32:53;;;;;;;;;;;;;;;18.40;48.75;100162.28;7283789;19;151966;-49
2021/12/29 05:35:25;;;;;;;;;;;;;;;18.39;48.70;100157.84;7282533;19;152617;-49
2021/12/29 05:37:52;;;;;;;;;;;;;;;18.39;48.70;100161.50;7282472;19;152348;-49
2021/12/29 05:40:19;;;;;;;;;;;;;;;18.40;48.81;100165.91;7292952;19;152083;-49
2021/12/29 05:42:45;;;;;;;;;;;;;;;18.38;48.88;100175.78;7279253;19;154124;-49
2021/12/29 05:45:13;;;;;;;;;;;;;;;18.37;48.87;100165.72;7285410;19;151551;-49
2021/12/29 05:47:40;;;;;;;;;;;;;;;18.37;48.56;100162.94;7280275;19;153407;-49
2021/12/29 05:50:09;;;;;;;;;;;;;;;18.38;49.04;100164.59;7281674;19;152942;-50
2021/12/29 05:52:36;;;;;;;;;;;;;;;18.37;48.86;100163.75;7282577;19;152256;-49
2021/12/29 05:55:03;;;;;;;;;;;;;;;18.35;49.12;100156.84;7286668;19;152689;-49
2021/12/29 05:57:30;;;;;;;;;;;;;;;18.36;48.83;100138.88;7283921;19;154012;-49
2021/12/29 05:59:57;;;;;;;;;;;;;;;18.35;48.98;100135.25;7285379;19;154432;-49
2021/12/29 06:02:24;;;;;;;;;;;;;;;18.35;48.97;100128.88;7269514;19;152973;-49
2021/12/29 06:04:51;;;;;;;;;;;;;;;18.34;48.89;100122.44;7270790;19;152301;-54
2021/12/29 06:07:18;;;;;;;;;;;;;;;18.34;49.26;100108.47;7281271;19;153676;-48
2021/12/29 06:09:45;;;;;;;;;;;;;;;18.35;49.12;100104.50;7280689;19;153062;-49
2021/12/29 06:12:12;;;;;;;;;;;;;;;18.35;49.09;100090.53;7279224;19;153104;-50
2021/12/29 06:14:39;;;;;;;;;;;;;;;18.33;49.12;100089.19;7282333;19;152711;-51
2021/12/29 06:17:06;;;;;;;;;;;;;;;18.35;49.21;100084.13;7279935;19;153951;-49
2021/12/29 06:19:34;;;;;;;;;;;;;;;18.34;49.10;100091.69;7280711;19;152191;-49
2021/12/29 06:22:00;;;;;;;;;;;;;;;18.34;48.99;100090.84;7287319;19;154239;-49
2021/12/29 06:24:27;;;;;;;;;;;;;;;18.33;49.28;100086.41;7282887;19;151735;-49
2021/12/29 06:26:54;;;;;;;;;;;;;;;18.33;49.36;100075.22;7282819;19;153885;-49
2021/12/29 06:29:21;;;;;;;;;;;;;;;18.33;49.44;100064.03;7280254;19;152432;-49
2021/12/29 06:31:49;;;;;;;;;;;;;;;18.32;49.48;100062.38;7281185;19;152216;-49
2021/12/29 06:34:16;;;;;;;;;;;;;;;18.32;49.43;100063.19;7281767;19;153426;-49
2021/12/29 06:36:43;;;;;;;;;;;;;;;18.32;49.55;100067.97;7281885;19;154100;-50
2021/12/29 06:39:10;;;;;;;;;;;;;;;18.33;49.39;100061.22;7282593;19;152147;-49
2021/12/29 06:41:37;;;;;;;;;;;;;;;18.31;49.52;100052.31;7282030;19;153228;-49
2021/12/29 06:44:04;;;;;;;;;;;;;;;18.32;49.26;100068.78;7287975;19;153567;-49
2021/12/29 06:46:30;;;;;;;;;;;;;;;18.32;49.62;100063.19;7281725;19;153491;-50
2021/12/29 06:48:58;;;;;;;;;;;;;;;18.31;49.35;100064.34;7278513;19;153831;-49
2021/12/29 06:51:25;;;;;;;;;;;;;;;18.31;49.31;100058.75;7281609;19;151936;-49
2021/12/29 06:53:52;;;;;;;;;;;;;;;18.33;49.43;100066.81;7281081;19;153324;-50
2021/12/29 06:56:19;;;;;;;;;;;;;;;18.30;49.37;100054.31;7281982;19;153311;-49
2021/12/29 06:58:46;;;;;;;;;;;;;;;18.31;49.74;100055.94;7278009;19;152182;-49
2021/12/29 07:01:13;;;;;;;;;;;;;;;18.31;49.57;100052.31;7280519;19;152911;-50
2021/12/29 07:03:41;;;;;;;;;;;;;;;18.31;49.50;100044.75;7274346;19;153885;-50
2021/12/29 07:06:07;;;;;;;;;;;;;;;18.31;49.64;100027.97;7286752;19;152563;-49
2021/12/29 07:08:34;;;;;;;;;;;;;;;18.31;49.76;100016.78;7280463;19;153267;-48
2021/12/29 07:11:02;;;;;;;;;;;;;;;18.32;50.35;100012.03;7282496;19;152571;-49
2021/12/29 07:13:29;;;;;;;;;;;;;;;18.30;50.36;100020.75;7282691;19;152776;-50
2021/12/29 07:15:56;;;;;;;;;;;;;;;18.31;50.41;100021.56;7282330;19;152150;-50
2021/12/29 07:18:23;;;;;;;;;;;;;;;18.30;50.64;100019.94;7282016;19;152196;-50
2021/12/29 07:20:50;;;;;;;;;;;;;;;18.30;50.64;100017.97;7281240;19;152843;-49
2021/12/29 07:23:17;;;;;;;;;;;;;;;18.31;50.28;100015.97;7277809;19;152933;-50
2021/12/29 07:25:44;;;;;;;;;;;;;;;18.30;50.71;100014.34;7281753;19;152454;-49
2021/12/29 07:28:11;;;;;;;;;;;;;;;18.31;50.74;100015.97;7291383;19;152911;-49
2021/12/29 07:30:38;;;;;;;;;;;;;;;18.32;50.42;100015.66;7281666;19;151750;-50
2021/12/29 07:33:05;;;;;;;;;;;;;;;18.39;50.19;100018.03;7282101;19;153207;-49
2021/12/29 07:35:32;;;;;;;;;;;;;;;18.40;50.28;100005.69;7283024;19;153601;-49
2021/12/29 07:37:59;;;;;;;;;;;;;;;18.43;50.41;100002.25;7282056;19;152639;-50
2021/12/29 07:40:26;;;;;;;;;;;;;;;18.41;50.29;99991.38;7279926;19;152388;-49
2021/12/29 07:42:53;;;;;;;;;;;;;;;18.43;50.37;99982.69;7277935;19;152620;-49
2021/12/29 07:45:19;;;;;;;;;;;;;;;18.44;50.45;99987.16;7280202;19;151818;-49
2021/12/29 07:47:48;;;;;;;;;;;;;;;18.45;50.24;99985.97;7283173;19;154056;-49
2021/12/29 07:50:16;;;;;;;;;;;;;;;18.45;50.46;99978.41;7286920;19;153839;-50
2021/12/29 07:52:56;;;;;;;;;;;;;;;18.44;50.21;99976.75;7281795;19;153416;-49
2021/12/29 07:55:23;;;;;;;;;;;;;;;18.46;50.58;99976.44;7280416;19;152740;-50
2021/12/29 07:57:50;;;;;;;;;;;;;;;18.42;50.38;99981.03;7281233;19;152290;-50
2021/12/29 08:00:17;;;;;;;;;;;;;;;18.42;50.27;99992.22;7279573;19;154838;-49
2021/12/29 08:02:44;;;;;;;;;;;;;;;18.39;50.25;99992.84;7276637;19;154798;-51
2021/12/29 08:05:12;;;;;;;;;;;;;;;18.43;50.65;99991.06;7281284;19;152676;-52
2021/12/29 08:07:45;;;;;;;;;;;;;;;18.37;50.46;99987.56;7286102;19;152750;-50
2021/12/29 08:10:13;;;;;;;;;;;;;;;18.38;50.53;99988.41;7283843;19;153379;-49
2021/12/29 08:12:40;;;;;;;;;;;;;;;18.38;50.53;100000.41;7295653;19;152093;-49
2021/12/29 08:15:07;;;;;;;;;;;;;;;18.36;50.45;99997.09;7286553;19;152283;-50
2021/12/29 08:17:34;;;;;;;;;;;;;;;18.36;50.63;99990.69;7285802;19;152196;-49
2021/12/29 08:20:03;;;;;;;;;;;;;;;18.35;50.31;99978.66;7286004;19;152895;-49
2021/12/29 08:22:30;;;;;;;;;;;;;;;18.36;50.77;99966.34;7286065;19;153985;-50
2021/12/29 08:24:57;;;;;;;;;;;;;;;18.38;50.40;99949.25;7289003;19;152597;-49
2021/12/29 08:27:24;;;;;;;;;;;;;;;18.36;50.87;99954.31;7287325;19;152569;-50
2021/12/29 08:29:51;;;;;;;;;;;;;;;18.36;50.45;99949.56;7285874;19;154076;-49
2021/12/29 08:32:18;;;;;;;;;;;;;;;18.37;50.42;99936.41;7293566;19;152346;-50
2021/12/29 08:34:45;;;;;;;;;;;;;;;18.38;50.61;99943.66;7282301;19;152274;-50
2021/12/29 08:37:15;;;;;;;;;;;;;;;18.40;50.41;99956.16;7287092;19;152309;-49
2021/12/29 08:39:42;;;;;;;;;;;;;;;18.38;50.57;99943.66;7289792;19;153310;-49
2021/12/29 08:42:10;;;;;;;;;;;;;;;18.39;50.80;99953.72;7286483;19;153617;-49
2021/12/29 08:44:42;;;;;;;;;;;;;;;18.37;50.86;99944.78;7288019;19;152436;-49
2021/12/29 08:47:09;;;;;;;;;;;;;;;18.37;50.66;99958.78;7290172;19;153015;-54
2021/12/29 08:49:36;;;;;;;;;;;;;;;18.36;50.69;99945.94;7285077;19;153688;-50
2021/12/29 08:52:03;;;;;;;;;;;;;;;18.32;50.84;99944.91;7283706;19;153167;-49
2021/12/29 08:54:30;;;;;;;;;;;;;;;18.35;50.79;99935.91;7290652;19;152279;-50
2021/12/29 08:56:57;;;;;;;;;;;;;;;18.34;50.79;99937.88;7284858;19;151873;-49
2021/12/29 08:59:24;;;;;;;;;;;;;;;18.34;51.14;99943.47;7286219;19;152537;-49
2021/12/29 09:01:51;;;;;;;;;;;;;;;18.34;50.83;99949.06;7288553;19;153724;-50
2021/12/29 09:04:20;;;;;;;;;;;;;;;18.36;50.98;99932.78;7285499;19;151788;-50
2021/12/29 09:06:47;;;;;;;;;;;;;;;18.35;50.69;99928.31;7284965;19;152744;-49
2021/12/29 09:09:14;;;;;;;;;;;;;;;18.35;51.25;99921.94;7287087;19;153325;-49
2021/12/29 09:11:42;;;;;;;;;;;;;;;18.35;50.99;99921.94;7285296;19;152169;-49
2021/12/29 09:14:09;;;;;;;;;;;;;;;18.34;51.22;99920.28;7284001;19;153317;-49
2021/12/29 09:16:36;;;;;;;;;;;;;;;18.36;51.06;99923.56;7291906;19;153313;-49
2021/12/29 09:19:04;;;;;;;;;;;;;;;18.35;51.18;99921.94;7285617;19;152642;-50
2021/12/29 09:21:32;;;;;;;;;;;;;;;18.34;50.94;99932.28;7287981;19;153748;-50
2021/12/29 09:23:59;;;;;;;;;;;;;;;18.35;51.20;99931.13;7285763;19;151569;-50
2021/12/29 09:26:26;;;;;;;;;;;;;;;18.36;51.45;99917.97;7286736;19;153741;-52
2021/12/29 09:28:53;;;;;;;;;;;;;;;18.35;51.50;99927.53;7281445;19;153222;-50
2021/12/29 09:31:20;;;;;;;;;;;;;;;18.34;51.27;99918.31;7285520;19;151733;-49
2021/12/29 09:33:47;;;;;;;;;;;;;;;18.34;51.50;99923.91;7286430;19;152650;-50
2021/12/29 09:36:15;;;;;;;;;;;;;;;18.36;51.26;99918.81;7284465;19;153689;-50
2021/12/29 09:38:42;;;;;;;;;;;;;;;18.39;51.52;99920.16;7292894;19;152999;-50
2021/12/29 09:41:11;;;;;;;;;;;;;;;18.40;51.61;99921.78;7281366;19;154162;-49
2021/12/29 09:43:40;;;;;;;;;;;;;;;18.35;51.64;99911.53;7284610;19;152485;-49
2021/12/29 09:46:07;;;;;;;;;;;;;;;18.36;51.54;99923.56;7284375;19;153473;-50
2021/12/29 09:48:35;;;;;;;;;;;;;;;18.37;51.89;99916.84;7279793;19;154321;-49
2021/12/29 09:51:03;;;;;;;;;;;;;;;18.38;51.53;99916.53;7285276;19;152295;-50
2021/12/29 09:53:30;;;;;;;;;;;;;;;18.38;51.62;99901.72;7285337;19;152666;-50
2021/12/29 09:55:57;;;;;;;;;;;;;;;18.38;51.81;99899.75;7284992;19;152916;-50
2021/12/29 09:58:24;;;;;;;;;;;;;;;18.38;51.84;99896.94;7284483;19;151882;-49
2021/12/29 10:00:55;;;;;;;;;;;;;;;18.37;52.08;99892.50;7290189;19;153333;-49
2021/12/29 10:03:23;;;;;;;;;;;;;;;18.39;51.79;99901.41;7281953;19;153790;-50
2021/12/29 10:05:52;;;;;;;;;;;;;;;18.39;51.92;99897.78;7283514;19;153372;-49
2021/12/29 10:08:23;;;;;;;;;;;;;;;18.38;51.85;99898.91;7279333;19;152501;-49
2021/12/29 10:10:52;;;;;;;;;;;;;;;18.42;51.94;99891.53;7284666;19;152217;-51
2021/12/29 10:13:19;;;;;;;;;;;;;;;18.41;51.92;99887.91;7284963;19;152780;-51
2021/12/29 10:15:47;;;;;;;;;;;;;;;18.43;51.95;99885.63;7281565;19;154148;-49
2021/12/29 10:18:16;;;;;;;;;;;;;;;18.46;51.94;99895.34;7285472;19;152109;-49
2021/12/29 10:20:52;;;;;;;;;;;;;;;18.45;52.21;99885.28;7282669;19;153607;-49
2021/12/29 10:23:22;;;;;;;;;;;;;;;18.46;51.95;99884.97;7289373;19;151828;-49
2021/12/29 10:25:51;;;;;;;;;;;;;;;18.47;51.87;99880.22;7282977;19;151907;-49
2021/12/29 10:28:19;;;;;;;;;;;;;;;18.46;52.27;99876.59;7279705;19;153551;-49
2021/12/29 10:30:53;;;;;;;;;;;;;;;18.45;52.40;99885.28;7284420;19;152074;-49
2021/12/29 10:33:20;;;;;;;;;;;;;;;18.47;52.40;99872.66;7282839;19;153197;-49
2021/12/29 10:35:51;;;;;;;;;;;;;;;18.46;52.34;99882.19;7283530;19;153857;-50
2021/12/29 10:38:20;;;;;;;;;;;;;;;18.47;52.39;99877.41;7285331;19;152677;-50
2021/12/29 10:40:48;;;;;;;;;;;;;;;18.47;52.17;99883.00;7283845;19;153324;-50
2021/12/29 10:43:16;;;;;;;;;;;;;;;18.46;52.46;99882.19;7287427;19;154098;-49
2021/12/29 10:45:46;;;;;;;;;;;;;;;18.47;52.30;99871.81;7282939;19;153258;-49
2021/12/29 10:48:16;;;;;;;;;;;;;;;18.47;52.21;99869.84;7281028;19;152909;-50
2021/12/29 10:50:46;;;;;;;;;;;;;;;18.46;52.71;99884.16;7283032;19;152365;-49
2021/12/29 10:53:19;;;;;;;;;;;;;;;18.48;52.48;99873.47;7283987;19;152781;-49
2021/12/29 10:55:46;;;;;;;;;;;;;;;18.48;52.52;99867.88;7282542;19;154159;-49
2021/12/29 10:58:15;;;;;;;;;;;;;;;18.49;52.57;99855.53;7282630;19;152229;-50
2021/12/29 11:00:49;;;;;;;;;;;;;;;18.48;53.01;99848.31;7283551;19;152617;-49
2021/12/29 11:03:19;;;;;;;;;;;;;;;18.47;52.59;99841.88;7279692;19;154259;-50
2021/12/29 11:05:50;;;;;;;;;;;;;;;18.46;53.15;99831.00;7290765;19;152593;-50
2021/12/29 11:08:17;;;;;;;;;;;;;;;18.47;53.03;99827.91;7279555;19;152550;-51
2021/12/29 11:10:45;;;;;;;;;;;;;;;18.49;52.95;99833.16;7281390;19;152167;-50
2021/12/29 11:13:22;;;;;;;;;;;;;;;18.49;53.34;99833.16;7281816;19;152655;-50
2021/12/29 11:15:50;;;;;;;;;;;;;;;18.49;53.54;99849.94;7280527;19;153219;-49
2021/12/29 11:18:17;;;;;;;;;;;;;;;18.50;53.67;99837.59;7281038;19;152417;-50
2021/12/29 11:20:45;;;;;;;;;;;;;;;18.49;53.56;99831.19;7283453;19;152738;-49
2021/12/29 11:23:14;;;;;;;;;;;;;;;18.52;53.64;99836.16;7280987;19;153691;-49
2021/12/29 11:25:42;;;;;;;;;;;;;;;18.51;53.66;99837.28;7279983;19;152748;-50
2021/12/29 11:28:20;;;;;;;;;;;;;;;18.50;54.03;99841.25;7287624;19;152580;-49
2021/12/29 11:30:47;;;;;;;;;;;;;;;18.51;53.81;99842.91;7283205;19;151965;-50
2021/12/29 11:33:14;;;;;;;;;;;;;;;18.50;53.93;99840.41;7281242;19;152092;-50
2021/12/29 11:35:43;;;;;;;;;;;;;;;18.54;54.11;99852.63;7279940;19;154737;-49
2021/12/29 11:38:11;;;;;;;;;;;;;;;18.53;54.16;99837.03;7282640;19;151969;-50
2021/12/29 11:40:40;;;;;;;;;;;;;;;18.54;54.10;99821.84;7283428;19;152731;-50
2021/12/29 11:43:07;;;;;;;;;;;;;;;18.52;54.66;99816.56;7279928;19;152851;-49
2021/12/29 11:45:36;;;;;;;;;;;;;;;18.54;54.57;99827.47;7280615;19;152973;-50
2021/12/29 11:48:03;;;;;;;;;;;;;;;18.52;54.97;99844.56;7279378;19;152740;-49
2021/12/29 11:50:34;;;;;;;;;;;;;;;18.54;54.73;99841.44;7287373;19;153963;-49
2021/12/29 11:53:07;;;;;;;;;;;;;;;18.51;55.27;99837.28;7283201;19;154115;-50
2021/12/29 11:55:40;;;;;;;;;;;;;;;18.55;55.13;99837.50;7279779;19;153934;-49
2021/12/29 11:58:10;;;;;;;;;;;;;;;18.54;55.03;99816.25;7281208;19;152140;-49
2021/12/29 12:00:37;;;;;;;;;;;;;;;18.57;55.03;99804.44;7278863;19;153228;-50
2021/12/29 12:03:07;;;;;;;;;;;;;;;18.51;55.32;99811.28;7278670;19;153914;-50
2021/12/29 12:05:38;;;;;;;;;;;;;;;18.56;55.68;99811.19;7277337;19;152540;-49
2021/12/29 12:08:08;;;;;;;;;;;;;;;18.56;55.82;99819.56;7279477;19;152557;-49
2021/12/29 12:10:36;;;;;;;;;;;;;;;18.56;56.05;99828.81;7277417;19;153204;-49
2021/12/29 12:13:06;;;;;;;;;;;;;;;18.57;55.83;99846.41;7288831;19;151926;-49
2021/12/29 12:15:34;;;;;;;;;;;;;;;18.58;56.54;99832.09;7278216;19;153582;-49
2021/12/29 12:18:07;;;;;;;;;;;;;;;18.58;56.33;99837.69;7280519;19;152131;-49
2021/12/29 12:20:37;;;;;;;;;;;;;;;18.59;56.43;99844.09;7278697;19;152679;-50
2021/12/29 12:23:05;;;;;;;;;;;;;;;18.55;56.46;99857.09;7279145;19;153411;-49
2021/12/29 12:25:32;;;;;;;;;;;;;;;18.62;57.08;99854.66;7278183;19;152503;-50
2021/12/29 12:28:02;;;;;;;;;;;;;;;18.61;56.86;99855.81;7282182;19;153194;-50
2021/12/29 12:30:32;;;;;;;;;;;;;;;18.60;57.20;99846.59;7280317;19;154915;-49
2021/12/29 12:33:08;;;;;;;;;;;;;;;18.60;57.11;99849.38;7291733;19;151709;-50
2021/12/29 12:35:38;;;;;;;;;;;;;;;18.58;57.13;99842.44;7281274;19;152177;-49
2021/12/29 12:38:08;;;;;;;;;;;;;;;18.60;57.41;99831.78;7281641;19;152364;-50
2021/12/29 12:40:36;;;;;;;;;;;;;;;18.57;57.11;99838.84;7283650;19;153470;-49
2021/12/29 12:43:11;;;;;;;;;;;;;;;18.53;57.71;99826.63;7280972;19;153980;-50
2021/12/29 12:45:42;;;;;;;;;;;;;;;18.58;57.77;99831.25;7277893;19;152485;-49